sensor_id;sensor_type;location;lat;lon;timestamp;P1;durP1;ratioP1;P2;durP2;ratioP2
57828;SDS011;43657;52.698;6.314;2022-09-09T00:02:19;6.63;;;5.93;;
57828;SDS011;43657;52.698;6.314;2022-09-09T00:05:09;6.40;;;5.80;;
57828;SDS011;43657;52.698;6.314;2022-09-09T00:07:40;7.13;;;6.45;;
57828;SDS011;43657;52.698;6.314;2022-09-09T00:10:34;7.32;;;6.32;;
57828;SDS011;43657;52.698;6.314;2022-09-09T00:21:00;7.13;;;5.63;;
57828;SDS011;43657;52.698;6.314;2022-09-09T00:23:42;6.90;;;6.15;;
57828;SDS011;43657;52.698;6.314;2022-09-09T00:29:20;7.75;;;6.95;;
57828;SDS011;43657;52.698;6.314;2022-09-09T00:32:09;8.02;;;7.22;;
57828;SDS011;43657;52.698;6.314;2022-09-09T00:34:39;7.20;;;6.50;;
57828;SDS011;43657;52.698;6.314;2022-09-09T00:37:27;7.95;;;7.15;;
57828;SDS011;43657;52.698;6.314;2022-09-09T00:39:57;7.97;;;7.00;;
57828;SDS011;43657;52.698;6.314;2022-09-09T00:42:34;7.90;;;7.10;;
57828;SDS011;43657;52.698;6.314;2022-09-09T00:45:19;8.60;;;7.70;;
57828;SDS011;43657;52.698;6.314;2022-09-09T00:47:56;8.52;;;7.20;;
57828;SDS011;43657;52.698;6.314;2022-09-09T00:58:36;8.18;;;7.35;;
57828;SDS011;43657;52.698;6.314;2022-09-09T01:01:06;7.95;;;7.00;;
57828;SDS011;43657;52.698;6.314;2022-09-09T01:04:10;9.65;;;7.25;;
57828;SDS011;43657;52.698;6.314;2022-09-09T01:06:34;9.82;;;7.55;;
57828;SDS011;43657;52.698;6.314;2022-09-09T01:20:15;9.77;;;7.10;;
57828;SDS011;43657;52.698;6.314;2022-09-09T01:22:57;8.73;;;6.95;;
57828;SDS011;43657;52.698;6.314;2022-09-09T01:28:20;9.15;;;7.60;;
57828;SDS011;43657;52.698;6.314;2022-09-09T01:30:50;7.78;;;6.85;;
57828;SDS011;43657;52.698;6.314;2022-09-09T01:33:16;7.68;;;6.88;;
57828;SDS011;43657;52.698;6.314;2022-09-09T01:38:11;8.60;;;7.57;;
57828;SDS011;43657;52.698;6.314;2022-09-09T01:40:38;9.02;;;7.10;;
57828;SDS011;43657;52.698;6.314;2022-09-09T01:43:04;8.05;;;6.63;;
57828;SDS011;43657;52.698;6.314;2022-09-09T01:45:31;7.72;;;6.93;;
57828;SDS011;43657;52.698;6.314;2022-09-09T01:47:57;6.85;;;6.03;;
57828;SDS011;43657;52.698;6.314;2022-09-09T01:50:24;8.25;;;6.70;;
57828;SDS011;43657;52.698;6.314;2022-09-09T01:52:50;9.52;;;7.18;;
57828;SDS011;43657;52.698;6.314;2022-09-09T01:55:21;7.38;;;6.15;;
57828;SDS011;43657;52.698;6.314;2022-09-09T02:00:40;7.60;;;6.72;;
57828;SDS011;43657;52.698;6.314;2022-09-09T02:03:25;7.57;;;6.32;;
57828;SDS011;43657;52.698;6.314;2022-09-09T02:08:40;8.38;;;6.28;;
57828;SDS011;43657;52.698;6.314;2022-09-09T02:11:20;6.82;;;6.13;;
57828;SDS011;43657;52.698;6.314;2022-09-09T02:13:49;9.45;;;6.82;;
57828;SDS011;43657;52.698;6.314;2022-09-09T02:16:23;8.25;;;5.97;;
57828;SDS011;43657;52.698;6.314;2022-09-09T02:19:04;9.05;;;5.32;;
57828;SDS011;43657;52.698;6.314;2022-09-09T02:21:50;6.63;;;5.70;;
57828;SDS011;43657;52.698;6.314;2022-09-09T02:24:20;6.80;;;6.10;;
57828;SDS011;43657;52.698;6.314;2022-09-09T02:26:48;7.55;;;6.35;;
57828;SDS011;43657;52.698;6.314;2022-09-09T02:29:28;6.32;;;5.70;;
57828;SDS011;43657;52.698;6.314;2022-09-09T02:31:58;7.32;;;6.07;;
57828;SDS011;43657;52.698;6.314;2022-09-09T02:34:28;7.40;;;6.40;;
57828;SDS011;43657;52.698;6.314;2022-09-09T02:36:56;7.00;;;5.97;;
57828;SDS011;43657;52.698;6.314;2022-09-09T02:39:24;8.23;;;6.22;;
57828;SDS011;43657;52.698;6.314;2022-09-09T02:41:50;6.45;;;5.85;;
57828;SDS011;43657;52.698;6.314;2022-09-09T02:44:17;6.45;;;5.70;;
57828;SDS011;43657;52.698;6.314;2022-09-09T02:47:06;6.85;;;5.63;;
57828;SDS011;43657;52.698;6.314;2022-09-09T02:52:24;6.20;;;5.60;;
57828;SDS011;43657;52.698;6.314;2022-09-09T02:55:16;6.38;;;5.25;;
57828;SDS011;43657;52.698;6.314;2022-09-09T02:57:55;5.88;;;5.10;;
57828;SDS011;43657;52.698;6.314;2022-09-09T03:00:23;5.95;;;5.10;;
57828;SDS011;43657;52.698;6.314;2022-09-09T03:02:52;5.80;;;5.20;;
57828;SDS011;43657;52.698;6.314;2022-09-09T03:05:19;6.47;;;5.65;;
57828;SDS011;43657;52.698;6.314;2022-09-09T03:07:45;6.72;;;4.90;;
57828;SDS011;43657;52.698;6.314;2022-09-09T03:10:11;5.53;;;5.03;;
57828;SDS011;43657;52.698;6.314;2022-09-09T03:12:37;5.80;;;5.20;;
57828;SDS011;43657;52.698;6.314;2022-09-09T03:15:03;6.70;;;5.30;;
57828;SDS011;43657;52.698;6.314;2022-09-09T03:17:30;5.88;;;5.10;;
57828;SDS011;43657;52.698;6.314;2022-09-09T03:19:55;6.18;;;4.97;;
57828;SDS011;43657;52.698;6.314;2022-09-09T03:22:23;5.90;;;4.90;;
57828;SDS011;43657;52.698;6.314;2022-09-09T03:24:50;5.63;;;4.90;;
57828;SDS011;43657;52.698;6.314;2022-09-09T03:27:16;6.20;;;4.75;;
57828;SDS011;43657;52.698;6.314;2022-09-09T03:29:42;5.75;;;4.82;;
57828;SDS011;43657;52.698;6.314;2022-09-09T03:32:08;5.30;;;4.80;;
57828;SDS011;43657;52.698;6.314;2022-09-09T03:34:35;5.18;;;4.45;;
57828;SDS011;43657;52.698;6.314;2022-09-09T03:37:04;6.05;;;5.45;;
57828;SDS011;43657;52.698;6.314;2022-09-09T03:39:30;5.00;;;4.45;;
57828;SDS011;43657;52.698;6.314;2022-09-09T03:41:56;5.35;;;4.38;;
57828;SDS011;43657;52.698;6.314;2022-09-09T03:44:21;4.93;;;4.43;;
57828;SDS011;43657;52.698;6.314;2022-09-09T03:46:47;5.28;;;4.78;;
57828;SDS011;43657;52.698;6.314;2022-09-09T03:49:12;5.22;;;4.40;;
57828;SDS011;43657;52.698;6.314;2022-09-09T03:51:38;5.63;;;4.90;;
57828;SDS011;43657;52.698;6.314;2022-09-09T03:54:04;5.53;;;4.50;;
57828;SDS011;43657;52.698;6.314;2022-09-09T03:56:33;4.43;;;4.00;;
57828;SDS011;43657;52.698;6.314;2022-09-09T03:58:59;5.53;;;4.93;;
57828;SDS011;43657;52.698;6.314;2022-09-09T04:01:25;5.80;;;4.57;;
57828;SDS011;43657;52.698;6.314;2022-09-09T04:03:50;6.60;;;5.15;;
57828;SDS011;43657;52.698;6.314;2022-09-09T04:06:17;6.10;;;4.85;;
57828;SDS011;43657;52.698;6.314;2022-09-09T04:08:45;7.63;;;5.82;;
57828;SDS011;43657;52.698;6.314;2022-09-09T04:11:13;8.75;;;6.10;;
57828;SDS011;43657;52.698;6.314;2022-09-09T04:13:40;7.60;;;6.05;;
57828;SDS011;43657;52.698;6.314;2022-09-09T04:16:07;7.63;;;6.82;;
57828;SDS011;43657;52.698;6.314;2022-09-09T04:18:35;8.30;;;6.65;;
57828;SDS011;43657;52.698;6.314;2022-09-09T04:21:01;9.35;;;7.18;;
57828;SDS011;43657;52.698;6.314;2022-09-09T04:23:28;8.25;;;7.30;;
57828;SDS011;43657;52.698;6.314;2022-09-09T04:25:54;7.40;;;6.60;;
57828;SDS011;43657;52.698;6.314;2022-09-09T04:28:22;7.63;;;6.82;;
57828;SDS011;43657;52.698;6.314;2022-09-09T04:30:50;7.88;;;6.63;;
57828;SDS011;43657;52.698;6.314;2022-09-09T04:33:16;9.18;;;7.40;;
57828;SDS011;43657;52.698;6.314;2022-09-09T04:35:45;9.38;;;7.32;;
57828;SDS011;43657;52.698;6.314;2022-09-09T04:38:13;7.55;;;6.28;;
57828;SDS011;43657;52.698;6.314;2022-09-09T04:40:38;8.63;;;6.70;;
57828;SDS011;43657;52.698;6.314;2022-09-09T04:43:08;7.70;;;6.85;;
57828;SDS011;43657;52.698;6.314;2022-09-09T04:45:34;8.68;;;6.72;;
57828;SDS011;43657;52.698;6.314;2022-09-09T04:48:00;7.57;;;6.88;;
57828;SDS011;43657;52.698;6.314;2022-09-09T04:50:27;7.63;;;6.40;;
57828;SDS011;43657;52.698;6.314;2022-09-09T04:52:53;7.45;;;6.65;;
57828;SDS011;43657;52.698;6.314;2022-09-09T04:55:19;7.20;;;5.90;;
57828;SDS011;43657;52.698;6.314;2022-09-09T04:57:45;7.10;;;6.07;;
57828;SDS011;43657;52.698;6.314;2022-09-09T05:00:11;7.45;;;6.20;;
57828;SDS011;43657;52.698;6.314;2022-09-09T05:02:38;6.65;;;5.95;;
57828;SDS011;43657;52.698;6.314;2022-09-09T05:05:05;6.15;;;5.43;;
57828;SDS011;43657;52.698;6.314;2022-09-09T05:07:31;6.90;;;6.20;;
57828;SDS011;43657;52.698;6.314;2022-09-09T05:09:57;7.20;;;6.18;;
57828;SDS011;43657;52.698;6.314;2022-09-09T05:12:23;7.03;;;5.60;;
57828;SDS011;43657;52.698;6.314;2022-09-09T05:14:50;7.30;;;5.57;;
57828;SDS011;43657;52.698;6.314;2022-09-09T05:17:16;7.93;;;6.47;;
57828;SDS011;43657;52.698;6.314;2022-09-09T05:19:42;6.68;;;5.72;;
57828;SDS011;43657;52.698;6.314;2022-09-09T05:22:09;6.22;;;5.50;;
57828;SDS011;43657;52.698;6.314;2022-09-09T05:24:36;7.05;;;5.63;;
57828;SDS011;43657;52.698;6.314;2022-09-09T05:27:03;7.55;;;6.30;;
57828;SDS011;43657;52.698;6.314;2022-09-09T05:29:31;7.07;;;6.25;;
57828;SDS011;43657;52.698;6.314;2022-09-09T05:32:00;8.10;;;6.60;;
57828;SDS011;43657;52.698;6.314;2022-09-09T05:34:26;7.55;;;6.28;;
57828;SDS011;43657;52.698;6.314;2022-09-09T05:36:52;8.25;;;6.43;;
57828;SDS011;43657;52.698;6.314;2022-09-09T05:39:18;7.95;;;6.88;;
57828;SDS011;43657;52.698;6.314;2022-09-09T05:41:44;7.20;;;6.35;;
57828;SDS011;43657;52.698;6.314;2022-09-09T05:44:09;8.15;;;6.45;;
57828;SDS011;43657;52.698;6.314;2022-09-09T05:46:35;7.45;;;6.65;;
57828;SDS011;43657;52.698;6.314;2022-09-09T05:49:01;7.20;;;6.28;;
57828;SDS011;43657;52.698;6.314;2022-09-09T05:51:27;8.65;;;6.75;;
57828;SDS011;43657;52.698;6.314;2022-09-09T05:53:57;7.60;;;6.20;;
57828;SDS011;43657;52.698;6.314;2022-09-09T05:56:24;6.70;;;6.00;;
57828;SDS011;43657;52.698;6.314;2022-09-09T05:58:51;9.45;;;6.38;;
57828;SDS011;43657;52.698;6.314;2022-09-09T06:01:19;8.07;;;6.30;;
57828;SDS011;43657;52.698;6.314;2022-09-09T06:03:59;7.22;;;6.47;;
57828;SDS011;43657;52.698;6.314;2022-09-09T06:06:26;8.70;;;6.90;;
57828;SDS011;43657;52.698;6.314;2022-09-09T06:08:55;6.97;;;5.95;;
57828;SDS011;43657;52.698;6.314;2022-09-09T06:11:26;7.43;;;6.30;;
57828;SDS011;43657;52.698;6.314;2022-09-09T06:13:56;7.85;;;6.20;;
57828;SDS011;43657;52.698;6.314;2022-09-09T06:16:22;8.68;;;6.38;;
57828;SDS011;43657;52.698;6.314;2022-09-09T06:18:50;7.45;;;6.45;;
57828;SDS011;43657;52.698;6.314;2022-09-09T06:21:24;8.32;;;6.45;;
57828;SDS011;43657;52.698;6.314;2022-09-09T06:23:55;7.05;;;6.28;;
57828;SDS011;43657;52.698;6.314;2022-09-09T06:26:31;6.50;;;5.80;;
57828;SDS011;43657;52.698;6.314;2022-09-09T06:28:58;6.57;;;5.97;;
57828;SDS011;43657;52.698;6.314;2022-09-09T06:31:25;6.93;;;6.15;;
57828;SDS011;43657;52.698;6.314;2022-09-09T06:33:55;7.03;;;6.32;;
57828;SDS011;43657;52.698;6.314;2022-09-09T06:36:25;6.65;;;5.95;;
57828;SDS011;43657;52.698;6.314;2022-09-09T06:38:52;7.18;;;6.20;;
57828;SDS011;43657;52.698;6.314;2022-09-09T06:41:18;6.38;;;5.68;;
57828;SDS011;43657;52.698;6.314;2022-09-09T06:43:45;7.93;;;6.32;;
57828;SDS011;43657;52.698;6.314;2022-09-09T06:46:16;6.72;;;5.97;;
57828;SDS011;43657;52.698;6.314;2022-09-09T06:48:43;9.00;;;6.13;;
57828;SDS011;43657;52.698;6.314;2022-09-09T06:51:20;7.10;;;5.78;;
57828;SDS011;43657;52.698;6.314;2022-09-09T06:53:47;7.13;;;5.93;;
57828;SDS011;43657;52.698;6.314;2022-09-09T06:58:42;7.97;;;5.85;;
57828;SDS011;43657;52.698;6.314;2022-09-09T07:01:09;6.97;;;5.68;;
57828;SDS011;43657;52.698;6.314;2022-09-09T07:03:37;6.05;;;5.45;;
57828;SDS011;43657;52.698;6.314;2022-09-09T07:06:03;7.28;;;5.20;;
57828;SDS011;43657;52.698;6.314;2022-09-09T07:08:30;5.50;;;4.80;;
57828;SDS011;43657;52.698;6.314;2022-09-09T07:11:01;7.03;;;5.38;;
57828;SDS011;43657;52.698;6.314;2022-09-09T07:13:29;5.82;;;5.22;;
57828;SDS011;43657;52.698;6.314;2022-09-09T07:16:02;6.93;;;5.70;;
57828;SDS011;43657;52.698;6.314;2022-09-09T07:18:32;8.38;;;6.15;;
57828;SDS011;43657;52.698;6.314;2022-09-09T07:20:58;7.80;;;5.75;;
57828;SDS011;43657;52.698;6.314;2022-09-09T07:23:23;7.93;;;5.05;;
57828;SDS011;43657;52.698;6.314;2022-09-09T07:25:49;6.50;;;5.57;;
57828;SDS011;43657;52.698;6.314;2022-09-09T07:28:16;6.63;;;5.57;;
57828;SDS011;43657;52.698;6.314;2022-09-09T07:30:42;6.03;;;5.03;;
57828;SDS011;43657;52.698;6.314;2022-09-09T07:33:08;6.13;;;4.72;;
57828;SDS011;43657;52.698;6.314;2022-09-09T07:35:37;7.60;;;5.30;;
57828;SDS011;43657;52.698;6.314;2022-09-09T07:38:03;6.78;;;4.95;;
57828;SDS011;43657;52.698;6.314;2022-09-09T07:40:32;6.90;;;4.72;;
57828;SDS011;43657;52.698;6.314;2022-09-09T07:42:59;6.28;;;4.90;;
57828;SDS011;43657;52.698;6.314;2022-09-09T07:45:24;5.90;;;4.53;;
57828;SDS011;43657;52.698;6.314;2022-09-09T07:47:53;4.68;;;4.18;;
57828;SDS011;43657;52.698;6.314;2022-09-09T07:50:18;5.78;;;4.55;;
57828;SDS011;43657;52.698;6.314;2022-09-09T07:52:44;6.10;;;4.25;;
57828;SDS011;43657;52.698;6.314;2022-09-09T07:55:09;4.72;;;3.85;;
57828;SDS011;43657;52.698;6.314;2022-09-09T07:57:35;6.30;;;4.18;;
57828;SDS011;43657;52.698;6.314;2022-09-09T08:00:02;4.35;;;3.67;;
57828;SDS011;43657;52.698;6.314;2022-09-09T08:02:28;4.50;;;3.78;;
57828;SDS011;43657;52.698;6.314;2022-09-09T08:04:54;3.47;;;2.97;;
57828;SDS011;43657;52.698;6.314;2022-09-09T08:07:21;5.50;;;3.78;;
57828;SDS011;43657;52.698;6.314;2022-09-09T08:09:48;5.88;;;3.55;;
57828;SDS011;43657;52.698;6.314;2022-09-09T08:12:14;5.13;;;3.60;;
57828;SDS011;43657;52.698;6.314;2022-09-09T08:14:41;4.45;;;3.60;;
57828;SDS011;43657;52.698;6.314;2022-09-09T08:17:07;4.57;;;3.60;;
57828;SDS011;43657;52.698;6.314;2022-09-09T08:19:32;4.65;;;3.35;;
57828;SDS011;43657;52.698;6.314;2022-09-09T08:22:00;5.43;;;3.30;;
57828;SDS011;43657;52.698;6.314;2022-09-09T08:24:27;4.25;;;3.35;;
57828;SDS011;43657;52.698;6.314;2022-09-09T08:26:53;4.28;;;3.42;;
57828;SDS011;43657;52.698;6.314;2022-09-09T08:29:19;4.00;;;3.28;;
57828;SDS011;43657;52.698;6.314;2022-09-09T08:31:46;4.57;;;3.00;;
57828;SDS011;43657;52.698;6.314;2022-09-09T08:34:14;5.82;;;2.92;;
57828;SDS011;43657;52.698;6.314;2022-09-09T08:36:43;3.72;;;2.65;;
57828;SDS011;43657;52.698;6.314;2022-09-09T08:39:11;4.70;;;3.17;;
57828;SDS011;43657;52.698;6.314;2022-09-09T08:52:36;3.22;;;2.13;;
57828;SDS011;43657;52.698;6.314;2022-09-09T08:55:15;7.68;;;4.00;;
57828;SDS011;43657;52.698;6.314;2022-09-09T08:57:51;4.10;;;2.40;;
57828;SDS011;43657;52.698;6.314;2022-09-09T09:00:19;4.60;;;2.17;;
57828;SDS011;43657;52.698;6.314;2022-09-09T09:10:46;2.88;;;2.15;;
57828;SDS011;43657;52.698;6.314;2022-09-09T09:13:22;4.60;;;2.53;;
57828;SDS011;43657;52.698;6.314;2022-09-09T09:15:52;6.07;;;1.98;;
57828;SDS011;43657;52.698;6.314;2022-09-09T09:18:22;3.47;;;2.45;;
57828;SDS011;43657;52.698;6.314;2022-09-09T09:21:06;3.15;;;1.70;;
57828;SDS011;43657;52.698;6.314;2022-09-09T09:23:45;4.15;;;1.88;;
57828;SDS011;43657;52.698;6.314;2022-09-09T09:26:20;3.65;;;1.63;;
57828;SDS011;43657;52.698;6.314;2022-09-09T09:28:48;4.93;;;2.00;;
57828;SDS011;43657;52.698;6.314;2022-09-09T09:31:15;4.88;;;1.90;;
57828;SDS011;43657;52.698;6.314;2022-09-09T09:36:07;4.13;;;1.70;;
57828;SDS011;43657;52.698;6.314;2022-09-09T09:38:33;4.20;;;1.90;;
57828;SDS011;43657;52.698;6.314;2022-09-09T09:41:00;3.67;;;1.98;;
57828;SDS011;43657;52.698;6.314;2022-09-09T09:45:55;3.50;;;1.60;;
57828;SDS011;43657;52.698;6.314;2022-09-09T09:48:25;4.78;;;1.67;;
57828;SDS011;43657;52.698;6.314;2022-09-09T09:50:54;2.67;;;1.58;;
57828;SDS011;43657;52.698;6.314;2022-09-09T09:53:25;3.40;;;1.80;;
57828;SDS011;43657;52.698;6.314;2022-09-09T09:55:57;3.50;;;1.33;;
57828;SDS011;43657;52.698;6.314;2022-09-09T09:58:37;3.15;;;1.35;;
57828;SDS011;43657;52.698;6.314;2022-09-09T10:03:59;3.78;;;1.60;;
57828;SDS011;43657;52.698;6.314;2022-09-09T10:06:35;3.00;;;1.58;;
57828;SDS011;43657;52.698;6.314;2022-09-09T10:09:03;3.80;;;1.55;;
57828;SDS011;43657;52.698;6.314;2022-09-09T10:14:30;3.33;;;1.50;;
57828;SDS011;43657;52.698;6.314;2022-09-09T10:19:42;3.53;;;1.63;;
57828;SDS011;43657;52.698;6.314;2022-09-09T10:22:27;3.40;;;1.45;;
57828;SDS011;43657;52.698;6.314;2022-09-09T10:30:18;4.07;;;1.63;;
57828;SDS011;43657;52.698;6.314;2022-09-09T10:36:20;2.28;;;1.20;;
57828;SDS011;43657;52.698;6.314;2022-09-09T10:51:23;4.38;;;1.40;;
57828;SDS011;43657;52.698;6.314;2022-09-09T10:57:08;2.63;;;1.10;;
57828;SDS011;43657;52.698;6.314;2022-09-09T10:59:52;3.33;;;1.40;;
57828;SDS011;43657;52.698;6.314;2022-09-09T11:02:28;4.18;;;1.40;;
57828;SDS011;43657;52.698;6.314;2022-09-09T11:05:03;2.03;;;1.00;;
57828;SDS011;43657;52.698;6.314;2022-09-09T11:07:33;2.20;;;1.10;;
57828;SDS011;43657;52.698;6.314;2022-09-09T11:13:08;1.83;;;1.13;;
57828;SDS011;43657;52.698;6.314;2022-09-09T11:15:43;4.10;;;1.42;;
57828;SDS011;43657;52.698;6.314;2022-09-09T11:18:13;2.78;;;1.42;;
57828;SDS011;43657;52.698;6.314;2022-09-09T11:20:44;3.80;;;1.60;;
57828;SDS011;43657;52.698;6.314;2022-09-09T11:23:13;3.08;;;1.40;;
57828;SDS011;43657;52.698;6.314;2022-09-09T11:25:43;4.60;;;1.30;;
57828;SDS011;43657;52.698;6.314;2022-09-09T11:36:12;3.47;;;1.30;;
57828;SDS011;43657;52.698;6.314;2022-09-09T11:41:55;4.00;;;1.50;;
57828;SDS011;43657;52.698;6.314;2022-09-09T11:44:45;4.20;;;1.08;;
57828;SDS011;43657;52.698;6.314;2022-09-09T11:50:40;1.75;;;1.02;;
57828;SDS011;43657;52.698;6.314;2022-09-09T11:52:42;1.88;;;1.05;;
57828;SDS011;43657;52.698;6.314;2022-09-09T11:58:17;2.25;;;1.00;;
57828;SDS011;43657;52.698;6.314;2022-09-09T12:00:44;2.13;;;1.15;;
57828;SDS011;43657;52.698;6.314;2022-09-09T12:08:46;2.47;;;1.30;;
57828;SDS011;43657;52.698;6.314;2022-09-09T12:11:25;4.97;;;1.10;;
57828;SDS011;43657;52.698;6.314;2022-09-09T12:13:56;2.40;;;0.90;;
57828;SDS011;43657;52.698;6.314;2022-09-09T12:16:32;2.03;;;1.00;;
57828;SDS011;43657;52.698;6.314;2022-09-09T12:19:19;5.07;;;1.10;;
57828;SDS011;43657;52.698;6.314;2022-09-09T12:24:46;2.15;;;0.80;;
57828;SDS011;43657;52.698;6.314;2022-09-09T12:27:26;3.15;;;1.45;;
57828;SDS011;43657;52.698;6.314;2022-09-09T12:30:09;2.97;;;1.25;;
57828;SDS011;43657;52.698;6.314;2022-09-09T12:32:39;1.55;;;1.05;;
57828;SDS011;43657;52.698;6.314;2022-09-09T12:35:20;2.65;;;0.75;;
57828;SDS011;43657;52.698;6.314;2022-09-09T12:37:53;1.70;;;0.75;;
57828;SDS011;43657;52.698;6.314;2022-09-09T12:40:27;3.58;;;0.90;;
57828;SDS011;43657;52.698;6.314;2022-09-09T12:42:57;2.28;;;0.80;;
57828;SDS011;43657;52.698;6.314;2022-09-09T12:45:27;3.60;;;1.00;;
57828;SDS011;43657;52.698;6.314;2022-09-09T12:48:00;2.13;;;1.00;;
57828;SDS011;43657;52.698;6.314;2022-09-09T12:50:32;2.00;;;0.68;;
57828;SDS011;43657;52.698;6.314;2022-09-09T12:53:04;1.15;;;0.70;;
57828;SDS011;43657;52.698;6.314;2022-09-09T12:55:35;1.88;;;0.60;;
57828;SDS011;43657;52.698;6.314;2022-09-09T12:58:02;2.42;;;0.75;;
57828;SDS011;43657;52.698;6.314;2022-09-09T13:00:30;1.63;;;0.60;;
57828;SDS011;43657;52.698;6.314;2022-09-09T13:02:58;2.35;;;0.80;;
57828;SDS011;43657;52.698;6.314;2022-09-09T13:05:34;2.15;;;0.80;;
57828;SDS011;43657;52.698;6.314;2022-09-09T13:08:02;3.38;;;0.93;;
57828;SDS011;43657;52.698;6.314;2022-09-09T13:10:30;2.22;;;0.60;;
57828;SDS011;43657;52.698;6.314;2022-09-09T13:13:00;2.47;;;0.70;;
57828;SDS011;43657;52.698;6.314;2022-09-09T13:15:26;3.20;;;0.70;;
57828;SDS011;43657;52.698;6.314;2022-09-09T13:17:55;2.75;;;0.88;;
57828;SDS011;43657;52.698;6.314;2022-09-09T13:20:23;1.00;;;0.50;;
57828;SDS011;43657;52.698;6.314;2022-09-09T13:22:50;1.38;;;0.95;;
57828;SDS011;43657;52.698;6.314;2022-09-09T13:25:24;2.67;;;1.10;;
57828;SDS011;43657;52.698;6.314;2022-09-09T13:30:26;2.47;;;0.82;;
57828;SDS011;43657;52.698;6.314;2022-09-09T13:38:53;2.03;;;1.27;;
57828;SDS011;43657;52.698;6.314;2022-09-09T13:41:25;2.97;;;1.23;;
57828;SDS011;43657;52.698;6.314;2022-09-09T13:43:57;1.73;;;0.98;;
57828;SDS011;43657;52.698;6.314;2022-09-09T13:46:29;2.35;;;0.90;;
57828;SDS011;43657;52.698;6.314;2022-09-09T13:51:36;1.65;;;1.20;;
57828;SDS011;43657;52.698;6.314;2022-09-09T13:54:13;2.53;;;1.00;;
57828;SDS011;43657;52.698;6.314;2022-09-09T13:56:40;1.90;;;1.10;;
57828;SDS011;43657;52.698;6.314;2022-09-09T13:59:17;4.00;;;1.25;;
57828;SDS011;43657;52.698;6.314;2022-09-09T14:01:44;2.15;;;0.82;;
57828;SDS011;43657;52.698;6.314;2022-09-09T14:04:10;1.58;;;1.08;;
57828;SDS011;43657;52.698;6.314;2022-09-09T14:06:37;1.48;;;0.80;;
57828;SDS011;43657;52.698;6.314;2022-09-09T14:09:08;2.30;;;0.80;;
57828;SDS011;43657;52.698;6.314;2022-09-09T14:11:36;2.00;;;1.10;;
57828;SDS011;43657;52.698;6.314;2022-09-09T14:14:02;1.52;;;1.08;;
57828;SDS011;43657;52.698;6.314;2022-09-09T14:16:28;2.15;;;1.00;;
57828;SDS011;43657;52.698;6.314;2022-09-09T14:18:54;1.75;;;0.85;;
57828;SDS011;43657;52.698;6.314;2022-09-09T14:21:21;1.85;;;0.98;;
57828;SDS011;43657;52.698;6.314;2022-09-09T14:23:46;1.20;;;0.80;;
57828;SDS011;43657;52.698;6.314;2022-09-09T14:26:13;2.67;;;1.15;;
57828;SDS011;43657;52.698;6.314;2022-09-09T14:28:39;1.92;;;0.95;;
57828;SDS011;43657;52.698;6.314;2022-09-09T14:31:05;2.95;;;0.73;;
57828;SDS011;43657;52.698;6.314;2022-09-09T14:33:31;1.33;;;0.88;;
57828;SDS011;43657;52.698;6.314;2022-09-09T14:35:58;2.45;;;0.80;;
57828;SDS011;43657;52.698;6.314;2022-09-09T14:38:25;1.85;;;0.85;;
57828;SDS011;43657;52.698;6.314;2022-09-09T14:40:53;2.30;;;0.77;;
57828;SDS011;43657;52.698;6.314;2022-09-09T14:43:19;1.88;;;1.23;;
57828;SDS011;43657;52.698;6.314;2022-09-09T14:45:45;2.63;;;0.80;;
57828;SDS011;43657;52.698;6.314;2022-09-09T14:48:13;2.55;;;0.93;;
57828;SDS011;43657;52.698;6.314;2022-09-09T14:50:40;2.35;;;0.95;;
57828;SDS011;43657;52.698;6.314;2022-09-09T14:53:06;1.25;;;0.70;;
57828;SDS011;43657;52.698;6.314;2022-09-09T14:55:32;1.40;;;0.80;;
57828;SDS011;43657;52.698;6.314;2022-09-09T14:57:58;1.73;;;0.88;;
57828;SDS011;43657;52.698;6.314;2022-09-09T15:00:23;2.17;;;0.90;;
57828;SDS011;43657;52.698;6.314;2022-09-09T15:02:51;1.45;;;0.85;;
57828;SDS011;43657;52.698;6.314;2022-09-09T15:05:20;1.98;;;0.82;;
57828;SDS011;43657;52.698;6.314;2022-09-09T15:07:46;2.70;;;1.00;;
57828;SDS011;43657;52.698;6.314;2022-09-09T15:10:13;3.05;;;1.00;;
57828;SDS011;43657;52.698;6.314;2022-09-09T15:12:39;2.28;;;1.00;;
57828;SDS011;43657;52.698;6.314;2022-09-09T15:15:06;1.15;;;0.95;;
57828;SDS011;43657;52.698;6.314;2022-09-09T15:17:32;1.63;;;0.77;;
57828;SDS011;43657;52.698;6.314;2022-09-09T15:19:58;2.35;;;1.25;;
57828;SDS011;43657;52.698;6.314;2022-09-09T15:22:23;0.95;;;0.90;;
57828;SDS011;43657;52.698;6.314;2022-09-09T15:24:50;1.20;;;1.10;;
57828;SDS011;43657;52.698;6.314;2022-09-09T15:27:16;2.42;;;1.30;;
57828;SDS011;43657;52.698;6.314;2022-09-09T15:29:42;3.05;;;1.42;;
57828;SDS011;43657;52.698;6.314;2022-09-09T15:32:09;1.77;;;1.05;;
57828;SDS011;43657;52.698;6.314;2022-09-09T15:34:35;1.15;;;1.05;;
57828;SDS011;43657;52.698;6.314;2022-09-09T15:37:00;2.28;;;1.60;;
57828;SDS011;43657;52.698;6.314;2022-09-09T15:39:26;3.45;;;1.60;;
57828;SDS011;43657;52.698;6.314;2022-09-09T15:41:51;2.30;;;1.50;;
57828;SDS011;43657;52.698;6.314;2022-09-09T15:44:18;2.55;;;1.42;;
57828;SDS011;43657;52.698;6.314;2022-09-09T15:46:45;2.65;;;1.42;;
57828;SDS011;43657;52.698;6.314;2022-09-09T15:49:14;2.70;;;1.52;;
57828;SDS011;43657;52.698;6.314;2022-09-09T15:51:43;2.88;;;1.83;;
57828;SDS011;43657;52.698;6.314;2022-09-09T15:54:11;3.90;;;1.60;;
57828;SDS011;43657;52.698;6.314;2022-09-09T15:56:38;1.77;;;1.67;;
57828;SDS011;43657;52.698;6.314;2022-09-09T15:59:04;1.90;;;1.58;;
57828;SDS011;43657;52.698;6.314;2022-09-09T16:01:30;2.30;;;1.55;;
57828;SDS011;43657;52.698;6.314;2022-09-09T16:03:56;1.70;;;1.48;;
57828;SDS011;43657;52.698;6.314;2022-09-09T16:06:23;2.33;;;1.58;;
57828;SDS011;43657;52.698;6.314;2022-09-09T16:08:50;3.75;;;1.85;;
57828;SDS011;43657;52.698;6.314;2022-09-09T16:13:54;2.03;;;1.60;;
57828;SDS011;43657;52.698;6.314;2022-09-09T16:16:21;2.05;;;1.38;;
57828;SDS011;43657;52.698;6.314;2022-09-09T16:18:53;2.45;;;1.45;;
57828;SDS011;43657;52.698;6.314;2022-09-09T16:23:51;2.13;;;1.65;;
57828;SDS011;43657;52.698;6.314;2022-09-09T16:26:18;2.25;;;1.50;;
57828;SDS011;43657;52.698;6.314;2022-09-09T16:28:44;2.22;;;1.50;;
57828;SDS011;43657;52.698;6.314;2022-09-09T16:31:15;3.53;;;1.63;;
57828;SDS011;43657;52.698;6.314;2022-09-09T16:33:42;1.73;;;1.30;;
57828;SDS011;43657;52.698;6.314;2022-09-09T16:36:09;1.85;;;1.35;;
57828;SDS011;43657;52.698;6.314;2022-09-09T16:38:37;1.83;;;1.40;;
57828;SDS011;43657;52.698;6.314;2022-09-09T16:41:04;1.90;;;1.38;;
57828;SDS011;43657;52.698;6.314;2022-09-09T16:43:31;2.75;;;1.40;;
57828;SDS011;43657;52.698;6.314;2022-09-09T16:45:57;1.20;;;1.10;;
57828;SDS011;43657;52.698;6.314;2022-09-09T16:48:25;1.33;;;1.10;;
57828;SDS011;43657;52.698;6.314;2022-09-09T16:50:52;1.70;;;1.15;;
57828;SDS011;43657;52.698;6.314;2022-09-09T16:53:17;2.75;;;1.10;;
57828;SDS011;43657;52.698;6.314;2022-09-09T16:55:43;2.08;;;1.20;;
57828;SDS011;43657;52.698;6.314;2022-09-09T16:58:12;2.22;;;1.60;;
57828;SDS011;43657;52.698;6.314;2022-09-09T17:00:38;2.00;;;1.42;;
57828;SDS011;43657;52.698;6.314;2022-09-09T17:03:03;1.65;;;1.55;;
57828;SDS011;43657;52.698;6.314;2022-09-09T17:05:29;1.50;;;1.40;;
57828;SDS011;43657;52.698;6.314;2022-09-09T17:07:54;3.17;;;1.48;;
57828;SDS011;43657;52.698;6.314;2022-09-09T17:10:24;2.50;;;1.77;;
57828;SDS011;43657;52.698;6.314;2022-09-09T17:12:50;2.70;;;1.65;;
57828;SDS011;43657;52.698;6.314;2022-09-09T17:15:16;1.60;;;1.50;;
57828;SDS011;43657;52.698;6.314;2022-09-09T17:17:43;2.55;;;1.30;;
57828;SDS011;43657;52.698;6.314;2022-09-09T17:20:10;2.00;;;1.23;;
57828;SDS011;43657;52.698;6.314;2022-09-09T17:22:36;2.67;;;1.50;;
57828;SDS011;43657;52.698;6.314;2022-09-09T17:25:02;3.13;;;2.00;;
57828;SDS011;43657;52.698;6.314;2022-09-09T17:27:28;2.33;;;1.60;;
57828;SDS011;43657;52.698;6.314;2022-09-09T17:29:56;2.25;;;1.67;;